FAWT weather

Winterveldt Mine Airport
Doornbosch, Limpopo, South Africa

Public forecast

Using degrees Celsius for public forecast. Weather courtesy of forecast.io.

METAR (pilot weather report)

Closest report is Hoedspruit Air Force Base Airport, 50.4 nm (93.4 km) ENE. Retrieved 2019/09/15 04:00 UTC (48 minutes ago):

FAHS 150400Z AUTO 18005KT //// // ////// 17/15 Q1023

TAF (pilot weather forecast)

Forecast is more than 12 hours old.

Closest forecast is Hoedspruit Air Force Base Airport, 50.4 nm (93.4 km) ENE. Retrieved 2017/05/23 04:01 UTC (2 years ago):

TAF FAHS 230300Z 2304/2315 VRB02KT CAVOK TX29/2312ZTN12/2304Z